Time;durP1;ratioP1;P1;durP2;ratioP2;P2;SDS_P1;SDS_P2;PMS_P1;PMS_P2;Temp;Humidity;BMP_temperature;BMP_pressure;BME280_temperature;BME280_humidity;BME280_pressure;Samples;Min_cycle;Max_cycle;Signal;HPM_P1;HPM_P2
2023/07/10 00:02:01;;;;;;;2.58;1.95;;;;;;;26.68;48.02;100401.91;10280829;28;20073;-60
2023/07/10 00:07:03;;;;;;;7.10;2.00;;;;;;;26.50;48.26;100398.63;10283993;28;20078;-59
2023/07/10 00:12:11;;;;;;;3.67;1.52;;;;;;;26.42;48.51;100390.09;10281117;28;20050;-59
2023/07/10 00:17:15;;;;;;;4.53;1.80;;;;;;;26.46;48.99;100388.41;10280233;28;20494;-59
2023/07/10 00:22:16;;;;;;;6.88;1.58;;;;;;;26.41;49.13;100405.81;10283440;28;20090;-60
2023/07/10 00:27:17;;;;;;;5.28;1.90;;;;;;;26.35;48.84;100400.59;10278392;28;20406;-60
2023/07/10 00:32:19;;;;;;;8.95;1.73;;;;;;;26.27;49.32;100394.53;10279003;28;20355;-61
2023/07/10 00:37:21;;;;;;;3.92;1.75;;;;;;;26.20;49.41;100393.19;10277631;28;20402;-61
2023/07/10 00:42:24;;;;;;;7.00;1.85;;;;;;;26.11;50.04;100377.22;10283404;28;20113;-60
2023/07/10 00:47:34;;;;;;;4.45;1.48;;;;;;;26.07;49.86;100370.63;10278826;28;20051;-60
2023/07/10 00:52:39;;;;;;;4.88;1.40;;;;;;;25.91;50.27;100383.59;10259269;28;20236;-60
2023/07/10 00:57:42;;;;;;;3.67;1.88;;;;;;;25.83;50.43;100392.41;10282670;28;20062;-61
2023/07/10 01:02:45;;;;;;;4.85;1.67;;;;;;;25.79;50.11;100387.69;10277531;28;20061;-59
2023/07/10 01:07:52;;;;;;;5.30;1.45;;;;;;;25.69;50.87;100388.53;10279625;28;20119;-60
2023/07/10 01:12:54;;;;;;;5.53;1.70;;;;;;;25.65;51.00;100399.28;10277821;28;20055;-61
2023/07/10 01:17:55;;;;;;;4.88;2.00;;;;;;;25.56;51.13;100403.69;10281724;28;20065;-60
2023/07/10 01:22:59;;;;;;;7.68;1.67;;;;;;;25.50;50.90;100408.38;10276568;28;20067;-59
2023/07/10 01:28:09;;;;;;;5.85;3.05;;;;;;;25.43;51.59;100417.97;10275666;28;20054;-60
2023/07/10 01:33:18;;;;;;;2.53;1.30;;;;;;;25.36;51.83;100420.19;10280753;28;20499;-60
2023/07/10 01:38:22;;;;;;;4.32;2.28;;;;;;;25.18;52.16;100429.72;10281820;28;20051;-60
2023/07/10 01:43:23;;;;;;;1.90;1.50;;;;;;;25.17;51.78;100437.16;10274256;28;20046;-59
2023/07/10 01:48:28;;;;;;;6.55;1.75;;;;;;;25.18;52.18;100441.59;10277613;28;20042;-60
2023/07/10 01:53:29;;;;;;;2.20;1.52;;;;;;;25.20;51.95;100466.91;10280837;28;20109;-61
2023/07/10 01:58:32;;;;;;;8.35;2.05;;;;;;;25.24;51.61;100467.22;10276817;28;20058;-60
2023/07/10 02:03:33;;;;;;;5.32;1.83;;;;;;;25.22;51.92;100458.41;10275000;28;20051;-60
2023/07/10 02:08:35;;;;;;;3.63;1.95;;;;;;;24.99;52.37;100476.19;10275630;28;20092;-60
2023/07/10 02:13:36;;;;;;;2.95;1.38;;;;;;;25.11;52.67;100463.03;10256735;28;20069;-59
2023/07/10 02:18:38;;;;;;;3.90;1.80;;;;;;;25.09;52.54;100448.72;10261295;28;20043;-60
2023/07/10 02:23:40;;;;;;;3.35;1.67;;;;;;;24.64;53.70;100448.25;10269078;28;20070;-60
2023/07/10 02:28:42;;;;;;;3.95;1.73;;;;;;;24.48;53.94;100441.00;10274163;28;20537;-61
2023/07/10 02:33:43;;;;;;;2.95;1.95;;;;;;;24.53;53.81;100452.88;10272887;28;20073;-60
2023/07/10 02:38:45;;;;;;;4.28;1.90;;;;;;;24.57;53.76;100469.66;10264645;28;20047;-61
2023/07/10 02:43:46;;;;;;;3.22;1.80;;;;;;;24.58;53.73;100460.31;10250873;28;20529;-60
2023/07/10 02:48:48;;;;;;;6.18;2.38;;;;;;;24.66;53.71;100448.81;10262733;28;20054;-60
2023/07/10 02:53:51;;;;;;;4.72;3.08;;;;;;;24.71;54.08;100439.78;10261215;28;20050;-60
2023/07/10 02:58:52;;;;;;;5.95;2.40;;;;;;;24.74;53.59;100436.47;10258035;28;20050;-60
2023/07/10 03:03:54;;;;;;;5.15;2.08;;;;;;;24.69;53.84;100420.78;10278430;28;20042;-60
2023/07/10 03:08:55;;;;;;;5.88;2.00;;;;;;;24.63;53.79;100421.88;10271286;28;20043;-61
2023/07/10 03:13:58;;;;;;;3.67;1.88;;;;;;;24.53;54.15;100450.13;10268678;28;20055;-60
2023/07/10 03:19:00;;;;;;;4.53;2.33;;;;;;;24.57;54.13;100433.13;10273723;28;20134;-60
2023/07/10 03:24:02;;;;;;;4.18;2.05;;;;;;;24.64;54.62;100448.25;10281260;28;20055;-62
2023/07/10 03:29:07;;;;;;;4.95;2.83;;;;;;;24.54;54.58;100457.25;10281924;28;20446;-60
2023/07/10 03:34:12;;;;;;;4.35;2.20;;;;;;;24.54;54.65;100482.00;10273649;28;20055;-60
2023/07/10 03:39:13;;;;;;;4.40;1.88;;;;;;;24.63;54.44;100501.59;10284269;28;20043;-60
2023/07/10 03:44:15;;;;;;;2.75;2.05;;;;;;;24.65;54.17;100518.63;10277933;28;20077;-61
2023/07/10 03:49:16;;;;;;;4.60;1.88;;;;;;;24.66;54.66;100517.53;10278453;28;20051;-62
2023/07/10 03:54:18;;;;;;;4.75;2.10;;;;;;;24.76;54.38;100521.44;10270296;28;20434;-60
2023/07/10 03:59:19;;;;;;;8.68;2.60;;;;;;;24.72;54.53;100541.25;10256874;28;20043;-61
2023/07/10 04:04:21;;;;;;;5.28;2.05;;;;;;;24.65;54.79;100553.56;10265647;28;20051;-62
2023/07/10 04:09:22;;;;;;;3.80;2.05;;;;;;;24.68;54.70;100548.31;10264914;28;20070;-60
2023/07/10 04:14:24;;;;;;;6.57;2.45;;;;;;;24.57;55.17;100546.63;10262252;28;20058;-60
2023/07/10 04:19:25;;;;;;;6.80;2.47;;;;;;;24.51;55.26;100555.94;10249098;28;20510;-61
2023/07/10 04:24:27;;;;;;;5.80;2.83;;;;;;;24.50;55.83;100557.84;10271765;28;20058;-61
2023/07/10 04:29:28;;;;;;;6.82;2.60;;;;;;;24.61;55.50;100563.44;10261290;28;20054;-61
2023/07/10 04:34:30;;;;;;;7.50;2.58;;;;;;;24.64;55.61;100551.88;10265258;28;20054;-61
2023/07/10 04:39:31;;;;;;;5.07;2.53;;;;;;;24.70;55.34;100540.69;10277280;28;20038;-61
2023/07/10 04:44:33;;;;;;;5.20;2.90;;;;;;;24.80;55.64;100556.38;10278625;28;20039;-61
2023/07/10 04:49:34;;;;;;;3.28;2.70;;;;;;;24.86;55.29;100560.00;10287044;28;20055;-63
2023/07/10 04:54:36;;;;;;;9.35;3.03;;;;;;;24.90;55.45;100561.13;10283628;28;20046;-64
2023/07/10 04:59:37;;;;;;;6.47;2.33;;;;;;;24.96;55.25;100573.81;10280728;28;20074;-64
2023/07/10 05:04:38;;;;;;;4.53;2.88;;;;;;;25.04;55.21;100578.81;10279175;28;20051;-61
2023/07/10 05:09:40;;;;;;;6.25;3.03;;;;;;;25.13;55.88;100590.13;10282364;28;20573;-63
2023/07/10 05:14:41;;;;;;;9.45;3.00;;;;;;;25.25;55.44;100596.28;10280246;28;20051;-62
2023/07/10 05:19:42;;;;;;;8.07;3.17;;;;;;;25.37;55.51;100597.97;10281213;28;20058;-62
2023/07/10 05:24:44;;;;;;;7.47;2.92;;;;;;;25.50;55.17;100601.06;10284976;28;20043;-62
2023/07/10 05:29:45;;;;;;;4.57;3.30;;;;;;;25.61;54.92;100601.09;10281435;28;20043;-63
2023/07/10 05:34:47;;;;;;;9.15;3.33;;;;;;;25.68;54.81;100612.69;10282647;28;20375;-64
2023/07/10 05:39:48;;;;;;;7.13;3.38;;;;;;;25.77;55.08;100611.06;10256330;28;20055;-65
2023/07/10 05:44:49;;;;;;;8.90;3.35;;;;;;;25.92;54.54;100610.31;10279186;28;20043;-65
2023/07/10 05:49:51;;;;;;;7.97;3.60;;;;;;;26.11;54.43;100619.72;10273136;28;20050;-65
2023/07/10 05:54:52;;;;;;;9.18;2.75;;;;;;;26.25;54.19;100627.44;10257348;28;20058;-65
2023/07/10 05:59:54;;;;;;;3.90;3.10;;;;;;;26.36;53.62;100636.53;10276300;28;20414;-65
2023/07/10 06:04:56;;;;;;;5.30;3.53;;;;;;;26.51;53.55;100645.66;10273087;28;20043;-66
2023/07/10 06:09:58;;;;;;;15.90;8.20;;;;;;;26.64;53.61;100652.59;10276720;28;20118;-65
2023/07/10 06:14:59;;;;;;;12.10;9.27;;;;;;;26.64;53.55;100638.81;10273876;28;20062;-66
2023/07/10 06:20:01;;;;;;;26.17;17.52;;;;;;;26.36;54.42;100640.13;10274481;28;20565;-65
2023/07/10 06:25:03;;;;;;;29.20;17.98;;;;;;;26.38;54.87;100642.59;10273898;28;20092;-66
2023/07/10 06:30:05;;;;;;;25.25;17.52;;;;;;;26.47;54.36;100646.47;10280069;28;20047;-64
2023/07/10 06:35:12;;;;;;;29.27;17.85;;;;;;;26.63;54.26;100645.41;10277841;28;20047;-65
2023/07/10 06:40:15;;;;;;;25.02;17.70;;;;;;;26.71;54.11;100642.09;10253952;28;20266;-66
2023/07/10 06:45:17;;;;;;;29.10;17.35;;;;;;;26.85;54.08;100642.34;10276264;28;20050;-67
2023/07/10 06:50:19;;;;;;;19.58;13.82;;;;;;;26.89;53.69;100650.91;10275432;28;20051;-67
2023/07/10 06:55:20;;;;;;;20.35;13.93;;;;;;;26.77;53.82;100656.72;10280487;28;20576;-65
2023/07/10 07:00:22;;;;;;;19.42;13.25;;;;;;;26.82;53.44;100658.66;10273115;28;20055;-66
2023/07/10 07:05:23;;;;;;;18.73;12.55;;;;;;;26.96;53.67;100665.25;10256871;28;20117;-66
2023/07/10 07:10:25;;;;;;;17.90;13.40;;;;;;;27.15;53.06;100657.19;10274564;28;20541;-68
2023/07/10 07:15:27;;;;;;;18.33;12.50;;;;;;;27.36;52.53;100659.94;10275833;28;20047;-68
2023/07/10 07:20:30;;;;;;;21.23;13.65;;;;;;;27.59;52.17;100647.44;10273682;28;20469;-67
2023/07/10 07:25:32;;;;;;;19.20;12.90;;;;;;;27.75;51.51;100657.31;10273907;28;20525;-67
2023/07/10 07:30:33;;;;;;;15.68;12.65;;;;;;;27.79;51.43;100665.88;10276457;28;20402;-67
2023/07/10 07:35:37;;;;;;;18.80;11.98;;;;;;;27.90;50.88;100661.94;10272070;28;20074;-69
2023/07/10 07:40:38;;;;;;;15.93;11.43;;;;;;;28.15;50.20;100660.97;10271638;28;20111;-67
2023/07/10 07:45:39;;;;;;;11.60;9.55;;;;;;;27.99;50.47;100659.44;10277545;28;20051;-68
2023/07/10 07:50:41;;;;;;;15.18;9.75;;;;;;;28.11;50.08;100662.66;10267462;28;20061;-68
2023/07/10 07:55:42;;;;;;;11.85;9.18;;;;;;;28.16;49.96;100665.41;10266073;28;20094;-68
2023/07/10 08:00:44;;;;;;;14.25;9.90;;;;;;;28.24;49.54;100666.75;10264950;28;20062;-68
2023/07/10 08:05:46;;;;;;;14.13;9.45;;;;;;;28.32;49.66;100668.06;10275234;28;20050;-70
2023/07/10 08:10:49;;;;;;;13.38;9.68;;;;;;;28.61;49.04;100674.50;10276659;28;20043;-68
2023/07/10 08:15:51;;;;;;;11.70;8.88;;;;;;;28.66;48.45;100671.69;10282056;28;20086;-69
2023/07/10 08:21:00;;;;;;;16.35;9.25;;;;;;;28.92;47.75;100667.88;10275703;28;20413;-67
2023/07/10 08:26:02;;;;;;;11.55;9.05;;;;;;;28.88;47.83;100673.19;10293044;28;20051;-69
2023/07/10 08:31:04;;;;;;;14.45;8.52;;;;;;;29.25;47.12;100672.56;10555456;23;20653;-68
2023/07/10 08:41:36;;;;;;;10.98;6.88;;;;;;;29.22;45.53;100673.13;11817935;23;19937;-66
2023/07/10 08:46:38;;;;;;;9.90;7.10;;;;;;;29.51;45.21;100680.56;11232867;23;20485;-64
2023/07/10 08:52:03;;;;;;;9.57;8.35;;;;;;;29.62;44.85;100684.03;10236452;28;20071;-67
2023/07/10 08:57:11;;;;;;;14.00;9.25;;;;;;;29.57;44.79;100690.47;10230274;28;20055;-65
2023/07/10 09:02:37;;;;;;;9.90;8.00;;;;;;;29.37;45.39;100683.22;10246099;28;20078;-65
2023/07/10 09:07:42;;;;;;;8.80;5.18;;;;;;;29.27;45.07;100697.19;10239902;28;20042;-65
2023/07/10 09:12:49;;;;;;;7.95;5.68;;;;;;;29.03;45.48;100694.38;10248250;28;20051;-65
2023/07/10 09:17:59;;;;;;;10.07;6.78;;;;;;;28.74;46.15;100703.47;10248116;28;20114;-66
2023/07/10 09:23:04;;;;;;;6.45;4.88;;;;;;;28.74;46.09;100710.94;10252316;28;20031;-66
2023/07/10 09:28:05;;;;;;;7.13;4.80;;;;;;;28.53;46.45;100693.66;10384482;23;20056;-68
2023/07/10 09:33:11;;;;;;;8.25;4.78;;;;;;;28.29;46.82;100694.34;10292638;28;20162;-66
2023/07/10 09:38:13;;;;;;;;;;;;;;;28.57;46.19;100697.50;10280719;28;20046;-66
2023/07/10 09:43:20;;;;;;;7.63;4.88;;;;;;;28.91;45.57;100702.22;10279768;28;20017;-68
2023/07/10 09:48:30;;;;;;;6.68;4.55;;;;;;;29.35;44.79;100695.72;10253594;28;20053;-62
2023/07/10 09:53:34;;;;;;;7.50;3.85;;;;;;;29.64;43.61;100701.19;10258539;28;20064;-59
2023/07/10 09:58:45;;;;;;;5.35;4.03;;;;;;;29.54;44.00;100701.31;10262645;28;20048;-64
2023/07/10 10:03:51;;;;;;;4.60;3.35;;;;;;;29.63;43.51;100705.09;10240736;28;20047;-61
2023/07/10 10:08:53;;;;;;;7.55;4.30;;;;;;;29.78;43.21;100699.41;10242207;28;20051;-59
2023/07/10 10:13:58;;;;;;;5.95;4.50;;;;;;;29.44;43.08;100696.72;10247950;28;20055;-59
2023/07/10 10:19:19;;;;;;;6.47;3.63;;;;;;;29.76;42.25;100682.25;10251252;28;20086;-62
2023/07/10 10:24:20;;;;;;;4.97;3.85;;;;;;;29.86;42.09;100697.94;10252221;28;20116;-59
2023/07/10 10:29:38;;;;;;;8.05;4.22;;;;;;;29.54;42.74;100681.91;10245999;28;20051;-60
2023/07/10 10:35:11;;;;;;;7.32;5.05;;;;;;;29.57;42.39;100692.44;10248837;28;20057;-60
2023/07/10 10:40:37;;;;;;;5.57;3.72;;;;;;;29.93;41.53;100690.03;10247184;28;20149;-64
2023/07/10 10:45:51;;;;;;;4.80;3.83;;;;;;;29.76;41.80;100693.34;10249035;28;20548;-62
2023/07/10 10:50:59;;;;;;;9.10;4.47;;;;;;;29.80;41.69;100702.69;10256808;28;20114;-63
2023/07/10 10:56:15;;;;;;;6.95;4.78;;;;;;;30.03;41.83;100678.00;10236042;28;20073;-60
2023/07/10 11:01:48;;;;;;;5.57;4.38;;;;;;;30.31;41.09;100680.94;10257366;28;20053;-61
2023/07/10 11:06:54;;;;;;;6.53;3.67;;;;;;;29.88;39.96;100679.03;10255683;28;20380;-64
2023/07/10 11:11:58;;;;;;;5.38;4.10;;;;;;;30.16;40.10;100670.91;10259697;28;20498;-61
2023/07/10 11:17:00;;;;;;;6.65;3.50;;;;;;;30.14;40.18;100679.50;10245263;28;20058;-62
2023/07/10 11:22:25;;;;;;;8.73;3.42;;;;;;;30.27;39.25;100652.94;10264726;28;20059;-62
2023/07/10 11:27:41;;;;;;;4.27;3.83;;;;;;;30.77;39.24;100656.06;10266297;28;20463;-65
2023/07/10 11:33:02;;;;;;;7.35;4.45;;;;;;;31.23;38.16;100658.00;10264646;28;20043;-63
2023/07/10 11:38:03;;;;;;;5.80;4.38;;;;;;;31.35;37.68;100662.25;10234730;28;20152;-61
2023/07/10 11:43:26;;;;;;;7.47;4.18;;;;;;;31.10;37.78;100644.09;10257422;28;20051;-63
2023/07/10 11:48:54;;;;;;;5.82;4.50;;;;;;;31.43;37.28;100662.31;10247097;28;20043;-61
2023/07/10 11:54:04;;;;;;;5.60;4.22;;;;;;;31.35;37.43;100660.28;10242815;28;20474;-62
2023/07/10 11:59:21;;;;;;;5.70;4.10;;;;;;;31.76;36.79;100662.25;10253134;28;20984;-64
2023/07/10 12:04:26;;;;;;;5.32;3.65;;;;;;;31.50;36.55;100658.34;10259221;28;20058;-64
2023/07/10 12:09:27;;;;;;;3.92;3.58;;;;;;;31.56;36.57;100646.00;10260878;28;20618;-64
2023/07/10 12:14:30;;;;;;;4.68;3.28;;;;;;;31.62;36.02;100653.09;10259389;28;20066;-64
2023/07/10 12:19:35;;;;;;;3.28;2.92;;;;;;;31.72;35.72;100638.97;10265977;28;20047;-63
2023/07/10 12:24:37;;;;;;;3.65;2.70;;;;;;;32.27;35.19;100623.28;10264177;28;20039;-65
2023/07/10 12:29:47;;;;;;;5.35;3.15;;;;;;;32.45;34.35;100632.59;10262495;28;20057;-63
2023/07/10 12:34:49;;;;;;;6.30;3.30;;;;;;;32.45;34.41;100633.41;10263402;28;20043;-63
2023/07/10 12:39:51;;;;;;;4.75;3.30;;;;;;;32.71;34.23;100632.78;10269098;28;20057;-64
2023/07/10 12:44:53;;;;;;;3.17;2.75;;;;;;;32.50;34.33;100632.47;10259743;28;20043;-63
2023/07/10 12:49:58;;;;;;;4.00;2.70;;;;;;;32.74;33.50;100626.56;10260298;28;20050;-64
2023/07/10 12:55:03;;;;;;;3.45;2.88;;;;;;;32.53;33.90;100615.13;10256539;28;20054;-65
2023/07/10 13:00:07;;;;;;;;;;;;;;;32.03;34.41;100616.06;10245898;28;20051;-63
2023/07/10 13:05:28;;;;;;;4.18;2.85;;;;;;;32.68;33.25;100602.78;10257486;28;19929;-64
2023/07/10 13:10:41;;;;;;;6.03;3.33;;;;;;;33.06;32.67;100610.66;10254401;28;20062;-63
2023/07/10 13:15:43;;;;;;;5.80;2.55;;;;;;;32.89;33.35;100615.03;10263459;28;20043;-65
2023/07/10 13:20:45;;;;;;;3.15;2.85;;;;;;;33.18;32.59;100608.16;10261158;28;20054;-63
2023/07/10 13:25:46;;;;;;;3.67;2.40;;;;;;;33.95;31.49;100587.16;10258275;28;20506;-64
2023/07/10 13:30:48;;;;;;;9.07;2.72;;;;;;;33.55;31.54;100608.72;10253016;28;20058;-64
2023/07/10 13:35:53;;;;;;;3.30;2.72;;;;;;;33.65;31.74;100590.88;10256340;28;20049;-62
2023/07/10 13:40:55;;;;;;;3.13;2.60;;;;;;;33.85;30.85;100575.47;10253675;28;20047;-59
2023/07/10 13:45:59;;;;;;;2.63;2.17;;;;;;;34.03;30.66;100573.53;10253965;28;20054;-62
2023/07/10 13:51:01;;;;;;;2.95;2.25;;;;;;;34.76;29.56;100577.22;10263692;28;20047;-61
2023/07/10 13:56:10;;;;;;;2.78;2.10;;;;;;;36.19;27.78;100586.06;10257835;28;20054;-61
2023/07/10 14:01:13;;;;;;;4.05;1.85;;;;;;;36.27;27.08;100585.97;10258117;28;20418;-60
2023/07/10 14:06:23;;;;;;;2.17;1.73;;;;;;;36.09;26.81;100576.09;10256840;28;20417;-62
2023/07/10 14:11:26;;;;;;;3.03;1.88;;;;;;;37.19;25.33;100578.34;10261627;28;20058;-64
2023/07/10 14:16:31;;;;;;;3.43;1.90;;;;;;;36.60;25.35;100575.94;10229669;28;20128;-62
2023/07/10 14:21:32;;;;;;;4.05;1.92;;;;;;;36.13;25.70;100572.25;10257559;28;20061;-63
2023/07/10 14:26:34;;;;;;;3.80;1.92;;;;;;;35.52;26.37;100569.91;10263877;28;20043;-61
2023/07/10 14:31:37;;;;;;;1.90;1.40;;;;;;;35.73;26.86;100571.94;10244995;28;20059;-63
2023/07/10 14:36:40;;;;;;;3.05;1.45;;;;;;;35.66;26.72;100569.69;10257889;28;20066;-63
2023/07/10 14:41:42;;;;;;;1.90;1.60;;;;;;;35.52;26.22;100555.94;10254047;28;20051;-63
2023/07/10 14:46:45;;;;;;;6.13;1.60;;;;;;;35.98;25.54;100561.69;10301018;28;20047;-61
2023/07/10 14:52:03;;;;;;;5.43;2.55;;;;;;;35.77;26.42;100558.91;10296262;28;20554;-60
2023/07/10 14:57:19;;;;;;;1.60;1.38;;;;;;;36.21;26.02;100556.56;10300786;28;20076;-61
2023/07/10 15:02:25;;;;;;;1.95;1.60;;;;;;;35.94;26.22;100552.34;10294858;28;20054;-64
2023/07/10 15:07:27;;;;;;;2.17;1.35;;;;;;;35.96;25.93;100552.00;10284590;28;20106;-64
2023/07/10 15:12:28;;;;;;;4.30;1.45;;;;;;;35.92;25.72;100546.25;10269540;28;20141;-64
2023/07/10 15:17:30;;;;;;;2.72;1.50;;;;;;;35.67;26.24;100545.34;10258535;28;20055;-62
2023/07/10 15:22:32;;;;;;;2.33;1.60;;;;;;;35.43;25.83;100541.22;10275217;28;20054;-63
2023/07/10 15:27:33;;;;;;;2.08;1.38;;;;;;;35.76;25.69;100534.06;10280719;28;20081;-64
2023/07/10 15:32:39;;;;;;;3.97;1.70;;;;;;;35.84;25.41;100530.38;10266788;28;20050;-64
2023/07/10 15:37:41;;;;;;;2.45;1.33;;;;;;;35.50;25.64;100529.47;10261402;28;20065;-63
2023/07/10 15:42:45;;;;;;;3.67;1.15;;;;;;;35.59;25.62;100530.22;10235189;28;20077;-62
2023/07/10 15:47:49;;;;;;;2.92;1.45;;;;;;;35.26;25.75;100521.75;10243241;28;20051;-63
2023/07/10 15:52:52;;;;;;;1.67;0.95;;;;;;;35.26;25.77;100532.94;10245650;28;20068;-62
2023/07/10 15:57:55;;;;;;;3.20;1.17;;;;;;;35.68;25.64;100524.59;10235759;28;20050;-63
2023/07/10 16:02:56;;;;;;;2.55;0.90;;;;;;;36.10;24.89;100528.16;10252290;28;20061;-60
2023/07/10 16:07:59;;;;;;;2.25;1.00;;;;;;;35.64;25.28;100510.44;10246651;28;20059;-62
2023/07/10 16:13:00;;;;;;;1.80;1.15;;;;;;;35.99;24.86;100507.34;10246400;28;20834;-61
2023/07/10 16:18:12;;;;;;;2.45;1.20;;;;;;;36.17;24.56;100510.00;10255749;28;20051;-61
2023/07/10 16:23:19;;;;;;;3.10;1.30;;;;;;;36.80;24.38;100512.59;10251127;28;20076;-63
2023/07/10 16:28:24;;;;;;;2.53;1.15;;;;;;;36.65;23.10;100502.88;10214049;28;20059;-60
2023/07/10 16:33:28;;;;;;;2.70;1.17;;;;;;;36.29;23.35;100502.44;10260053;28;20065;-62
2023/07/10 16:38:30;;;;;;;3.20;0.80;;;;;;;36.30;22.37;100495.69;10265193;28;20054;-64
2023/07/10 16:43:33;;;;;;;1.75;1.02;;;;;;;36.69;21.29;100493.44;10241517;28;20055;-62
2023/07/10 16:48:34;;;;;;;1.35;0.90;;;;;;;36.19;22.21;100504.88;10260379;28;20066;-61
2023/07/10 16:53:40;;;;;;;2.03;1.10;;;;;;;36.66;22.43;100498.91;10268362;28;20139;-63
2023/07/10 16:58:42;;;;;;;1.83;1.10;;;;;;;36.40;22.64;100508.44;10260622;28;20051;-62
2023/07/10 17:03:43;;;;;;;2.08;0.90;;;;;;;36.83;22.26;100509.06;10260790;28;20139;-61
2023/07/10 17:08:45;;;;;;;1.15;0.77;;;;;;;36.49;22.82;100509.13;10257977;28;20043;-60
2023/07/10 17:13:47;;;;;;;2.85;0.80;;;;;;;36.23;23.72;100505.81;10263272;28;20130;-60
2023/07/10 17:18:48;;;;;;;2.22;0.80;;;;;;;36.30;23.86;100500.50;10266605;28;20109;-60
2023/07/10 17:23:51;;;;;;;1.42;1.25;;;;;;;36.04;23.94;100507.16;10262057;28;20055;-61
2023/07/10 17:28:52;;;;;;;1.25;0.90;;;;;;;35.60;24.46;100503.88;10259924;28;20047;-62
2023/07/10 17:33:55;;;;;;;2.25;0.90;;;;;;;35.12;24.75;100506.03;10243105;28;20061;-61
2023/07/10 17:38:57;;;;;;;4.18;0.70;;;;;;;35.38;24.77;100501.44;10245043;28;20063;-62
2023/07/10 17:44:23;;;;;;;1.35;0.73;;;;;;;34.86;25.35;100500.59;10246853;28;20418;-61
2023/07/10 17:49:26;;;;;;;2.03;0.70;;;;;;;34.42;25.87;100507.47;10232441;28;20448;-61
2023/07/10 17:54:28;;;;;;;3.63;1.13;;;;;;;34.27;25.62;100500.47;10264579;28;20058;-61
2023/07/10 17:59:29;;;;;;;1.95;0.70;;;;;;;34.27;26.38;100500.47;10260779;28;20130;-63
2023/07/10 18:04:31;;;;;;;1.95;0.85;;;;;;;33.89;26.88;100510.34;10258650;28;20445;-62
2023/07/10 18:09:32;;;;;;;3.00;1.00;;;;;;;33.58;26.75;100496.56;10259121;28;20054;-60
2023/07/10 18:14:34;;;;;;;2.63;0.70;;;;;;;33.22;27.20;100522.75;10256292;28;20122;-62
2023/07/10 18:19:35;;;;;;;2.80;0.95;;;;;;;32.76;27.80;100519.31;10247823;28;20055;-61
2023/07/10 18:24:37;;;;;;;2.35;0.75;;;;;;;32.42;28.16;100517.97;10259648;28;20525;-61
2023/07/10 18:29:38;;;;;;;1.08;0.73;;;;;;;32.21;28.44;100519.66;10242460;28;20151;-61
2023/07/10 18:34:40;;;;;;;4.72;0.90;;;;;;;32.16;28.64;100526.16;10259000;28;20038;-62
2023/07/10 18:39:42;;;;;;;3.92;1.30;;;;;;;31.70;28.93;100520.91;10259523;28;20051;-63
2023/07/10 18:44:44;;;;;;;1.00;0.65;;;;;;;31.20;29.95;100516.97;10245080;28;20058;-62
2023/07/10 18:49:46;;;;;;;4.20;1.13;;;;;;;30.97;30.48;100531.91;10260610;28;20046;-62
2023/07/10 18:54:47;;;;;;;2.70;1.10;;;;;;;30.81;30.63;100532.16;10262191;28;20083;-61
2023/07/10 18:59:49;;;;;;;1.88;0.95;;;;;;;30.79;30.33;100528.88;10259679;28;20059;-61
2023/07/10 19:04:51;;;;;;;1.73;0.88;;;;;;;30.77;31.09;100538.66;10255058;28;20051;-64
2023/07/10 19:09:52;;;;;;;0.93;0.90;;;;;;;30.66;31.71;100531.66;10256809;28;20117;-62
2023/07/10 19:14:54;;;;;;;2.10;1.00;;;;;;;30.46;32.03;100535.63;10259576;28;20054;-69
2023/07/10 19:19:56;;;;;;;3.85;1.00;;;;;;;30.30;31.92;100530.31;10245004;28;20406;-62
2023/07/10 19:25:00;;;;;;;1.98;0.90;;;;;;;29.97;32.62;100532.25;10252391;28;20070;-61
2023/07/10 19:30:02;;;;;;;1.60;0.70;;;;;;;29.58;33.24;100538.91;10258665;28;20673;-61
2023/07/10 19:35:04;;;;;;;2.17;1.08;;;;;;;29.33;33.62;100543.69;10253707;28;20167;-61
2023/07/10 19:40:20;;;;;;;2.30;0.90;;;;;;;29.15;34.14;100555.53;10253886;28;20059;-63
2023/07/10 19:45:21;;;;;;;2.22;0.80;;;;;;;29.03;34.71;100567.84;10250192;28;20503;-64
2023/07/10 19:50:24;;;;;;;3.40;0.90;;;;;;;28.89;35.18;100569.66;10256644;28;20047;-61
2023/07/10 19:55:25;;;;;;;4.80;1.10;;;;;;;28.72;35.50;100574.81;10250146;28;20039;-62
2023/07/10 20:00:27;;;;;;;1.30;0.77;;;;;;;28.56;35.84;100572.22;10247593;28;20065;-62
2023/07/10 20:05:29;;;;;;;4.03;0.70;;;;;;;28.44;35.87;100580.84;10259569;28;20102;-62
2023/07/10 20:10:30;;;;;;;2.67;0.93;;;;;;;28.28;36.54;100573.81;10262551;28;20043;-61
2023/07/10 20:15:32;;;;;;;2.35;1.13;;;;;;;28.11;36.98;100573.41;10258694;28;20062;-61
2023/07/10 20:20:36;;;;;;;2.47;0.82;;;;;;;28.01;37.52;100575.13;10260805;28;20113;-62
2023/07/10 20:25:42;;;;;;;2.17;1.00;;;;;;;27.80;37.59;100563.34;10256105;28;20047;-63
2023/07/10 20:30:43;;;;;;;2.05;0.90;;;;;;;27.55;37.99;100564.34;10252186;28;20051;-61
2023/07/10 20:35:46;;;;;;;2.15;0.90;;;;;;;27.19;38.83;100558.09;10263514;28;20070;-61
2023/07/10 20:40:49;;;;;;;1.70;1.00;;;;;;;26.84;39.10;100566.22;10267765;28;20502;-63
2023/07/10 20:45:56;;;;;;;3.35;1.00;;;;;;;26.76;39.18;100564.03;10264812;28;21173;-61
2023/07/10 20:50:59;;;;;;;6.90;1.23;;;;;;;26.67;39.94;100571.22;10270629;28;20068;-61
2023/07/10 20:56:14;;;;;;;1.70;1.10;;;;;;;26.68;39.97;100572.88;10260851;28;20512;-61
2023/07/10 21:01:19;;;;;;;2.15;1.20;;;;;;;26.56;39.93;100566.78;10271776;28;20111;-59
2023/07/10 21:06:27;;;;;;;1.85;1.02;;;;;;;26.21;40.65;100568.47;10265611;28;20468;-62
2023/07/10 21:11:31;;;;;;;3.80;0.80;;;;;;;26.11;41.03;100561.84;10265986;28;20055;-63
2023/07/10 21:16:33;;;;;;;2.83;0.88;;;;;;;26.01;41.10;100552.75;10262560;28;20499;-61
2023/07/10 21:21:35;;;;;;;3.13;1.05;;;;;;;25.83;41.63;100562.31;10243126;28;20558;-61
2023/07/10 21:26:37;;;;;;;4.43;1.10;;;;;;;25.76;41.73;100557.09;10258971;28;20078;-61
2023/07/10 21:31:39;;;;;;;2.80;1.23;;;;;;;25.73;41.99;100552.94;10262327;28;20061;-62
2023/07/10 21:36:42;;;;;;;2.63;1.05;;;;;;;25.63;42.24;100552.94;10261570;28;20562;-63
2023/07/10 21:41:44;;;;;;;5.05;1.05;;;;;;;25.53;42.78;100558.38;10262223;28;20057;-62
2023/07/10 21:46:45;;;;;;;1.75;0.70;;;;;;;25.37;42.87;100549.25;10243594;28;20054;-62
2023/07/10 21:51:47;;;;;;;3.05;1.05;;;;;;;25.16;43.48;100558.50;10262123;28;20114;-66
2023/07/10 21:56:48;;;;;;;1.85;0.93;;;;;;;25.07;43.33;100560.94;10266908;28;20047;-62
2023/07/10 22:01:50;;;;;;;1.25;0.68;;;;;;;24.93;43.55;100558.66;10258712;28;20058;-62
2023/07/10 22:06:51;;;;;;;3.60;0.80;;;;;;;24.87;44.19;100556.16;10262154;28;20050;-62
2023/07/10 22:11:53;;;;;;;2.40;1.13;;;;;;;24.74;43.68;100555.53;10246177;28;20062;-64
2023/07/10 22:16:54;;;;;;;1.90;0.90;;;;;;;24.73;44.17;100567.63;10255845;28;20455;-62
2023/07/10 22:22:10;;;;;;;2.75;1.20;;;;;;;24.60;44.70;100557.06;10259757;28;20054;-62
2023/07/10 22:27:12;;;;;;;3.42;0.90;;;;;;;24.57;44.97;100554.88;10252458;28;20069;-63
2023/07/10 22:32:13;;;;;;;5.45;1.40;;;;;;;24.49;45.11;100558.09;10261807;28;20055;-64
2023/07/10 22:37:15;;;;;;;3.47;1.25;;;;;;;24.39;45.30;100553.34;10257563;28;20047;-61
2023/07/10 22:42:17;;;;;;;3.63;1.15;;;;;;;24.29;45.33;100551.34;10255276;28;20055;-63
2023/07/10 22:47:18;;;;;;;1.85;1.08;;;;;;;24.19;45.17;100548.50;10257250;28;20045;-61
2023/07/10 22:52:21;;;;;;;3.25;1.33;;;;;;;24.10;45.38;100545.41;10258613;28;20114;-62
2023/07/10 22:57:22;;;;;;;2.53;1.00;;;;;;;24.04;45.73;100542.88;10253865;28;20055;-63
2023/07/10 23:02:23;;;;;;;3.10;1.20;;;;;;;23.84;46.05;100522.38;10261433;28;20046;-63
2023/07/10 23:07:25;;;;;;;2.78;1.00;;;;;;;23.62;46.51;100516.06;10257329;28;20452;-61
2023/07/10 23:12:26;;;;;;;4.40;1.30;;;;;;;23.30;47.20;100514.94;10255645;28;20062;-62
2023/07/10 23:17:28;;;;;;;4.45;1.38;;;;;;;23.24;47.10;100512.38;10252922;28;20052;-62
2023/07/10 23:22:31;;;;;;;2.22;1.20;;;;;;;23.27;47.27;100514.59;10256158;28;20047;-63